Terminal Aerodrome Forecast
Issued by NWS Louisville, KY

Current Version | Previous Version | Text Only | Print | Product List | Glossary On
Versions: 1 2 3 4 5 6 7 8 9 10 11 12 13 14 15
000
FTUS43 KLMK 192300
TAFSDF
TAF
KSDF 192320Z 2000/2106 20010G18KT 6SM -SHRA VCTS FEW025 BKN050CB
     FM200400 23015KT 6SM BR VCSH BKN015
     FM200900 22013KT 6SM -SHRA BR VCTS BKN025CB
     FM201200 23016G24KT P6SM VCSH BKN015
     FM201800 26014G20KT P6SM VCSH BKN025
     FM210000 28013KT P6SM BKN050=

USA.gov is the U.S. government's official web portal to all federal, state and local government web resources and services.